createdAt,value
2019-02-16T00:00:47.841Z,7.07
2019-02-16T00:01:46.656Z,7.12
2019-02-16T00:02:45.564Z,7.03
2019-02-16T00:03:44.017Z,6.89
2019-02-16T00:04:42.656Z,6.84
2019-02-16T00:05:41.271Z,6.95
2019-02-16T00:06:40.175Z,7.03
2019-02-16T00:07:38.457Z,7.24
2019-02-16T00:08:37.115Z,7.24
2019-02-16T00:09:35.647Z,7.32
2019-02-16T00:10:34.387Z,7.15
2019-02-16T00:11:32.958Z,7.1
2019-02-16T00:12:31.507Z,7.06
2019-02-16T00:13:30.231Z,7.12
2019-02-16T00:14:28.877Z,7.15
2019-02-16T00:15:27.437Z,7.15
2019-02-16T00:17:13.645Z,7.17
2019-02-16T00:18:12.435Z,7.35
2019-02-16T00:19:11.127Z,7.4
2019-02-16T00:20:09.681Z,7.4
2019-02-16T00:21:08.223Z,7.3
2019-02-16T00:22:06.974Z,7.42
2019-02-16T00:23:05.545Z,7.46
2019-02-16T00:24:04.119Z,7.42
2019-02-16T00:25:02.737Z,7.4
2019-02-16T00:26:01.381Z,7.49
2019-02-16T00:26:59.930Z,7.48
2019-02-16T00:27:58.507Z,7.48
2019-02-16T00:28:57.232Z,7.53
2019-02-16T00:29:55.759Z,7.42
2019-02-16T00:30:54.372Z,7.4
2019-02-16T00:31:53.123Z,7.3
2019-02-16T00:32:51.682Z,7.3
2019-02-16T00:33:50.246Z,7.24
2019-02-16T00:34:48.865Z,7.15
2019-02-16T00:35:47.511Z,7.09
2019-02-16T00:36:46.069Z,7.03
2019-02-16T00:37:44.645Z,7.07
2019-02-16T00:38:43.184Z,7.05
2019-02-16T00:39:41.752Z,7.02
2019-02-16T00:40:40.464Z,7.15
2019-02-16T00:41:39.350Z,7.17
2019-02-16T00:42:37.881Z,7.2
2019-02-16T00:43:36.497Z,7.09
2019-02-16T00:44:35.141Z,7.17
2019-02-16T00:45:33.696Z,7.06
2019-02-16T00:46:32.311Z,7.02
2019-02-16T00:47:30.848Z,6.97
2019-02-16T00:48:29.397Z,6.98
2019-02-16T00:49:27.983Z,7.02
2019-02-16T00:50:26.581Z,6.99
2019-02-16T00:51:25.325Z,7.09
2019-02-16T00:52:23.876Z,7.02
2019-02-16T00:53:22.503Z,7.02
2019-02-16T00:54:21.067Z,6.98
2019-02-16T00:55:19.663Z,7.02
2019-02-16T00:56:18.255Z,7.02
2019-02-16T00:57:16.889Z,6.99
2019-02-16T00:58:15.482Z,6.84
2019-02-16T00:59:14.022Z,6.8
2019-02-16T01:00:12.630Z,6.88
2019-02-16T01:01:11.172Z,6.91
2019-02-16T01:02:09.725Z,6.79
2019-02-16T01:03:08.371Z,6.84
2019-02-16T01:04:07.124Z,6.84
2019-02-16T01:05:05.709Z,6.98
2019-02-16T01:06:04.325Z,6.97
2019-02-16T01:07:03.035Z,6.76
2019-02-16T01:08:01.591Z,6.77
2019-02-16T01:09:00.134Z,6.89
2019-02-16T01:09:58.812Z,6.87
2019-02-16T01:10:57.425Z,6.7
2019-02-16T01:11:55.970Z,6.64
2019-02-16T01:12:54.576Z,6.67
2019-02-16T01:13:53.310Z,6.76
2019-02-16T01:14:51.840Z,6.64
2019-02-16T01:15:50.523Z,6.55
2019-02-16T01:16:49.269Z,6.7
2019-02-16T01:17:48.064Z,6.84
2019-02-16T01:18:46.624Z,6.85
2019-02-16T01:19:45.370Z,6.98
2019-02-16T01:20:43.935Z,6.81
2019-02-16T01:21:42.640Z,6.79
2019-02-16T01:22:41.374Z,6.74
2019-02-16T01:23:39.966Z,6.7
2019-02-16T01:24:38.727Z,6.67
2019-02-16T01:25:37.284Z,6.59
2019-02-16T01:26:35.856Z,6.48
2019-02-16T01:27:34.701Z,6.41
2019-02-16T01:28:33.417Z,6.46
2019-02-16T01:29:31.947Z,6.4
2019-02-16T01:30:30.532Z,6.44
2019-02-16T01:31:29.095Z,6.66
2019-02-16T01:32:27.655Z,6.48
2019-02-16T01:33:26.350Z,6.54
2019-02-16T01:34:25.235Z,6.54
2019-02-16T01:35:23.803Z,6.48
2019-02-16T01:36:22.410Z,6.36
2019-02-16T01:37:21.010Z,6.41
2019-02-16T01:38:19.553Z,6.41
2019-02-16T01:39:18.108Z,6.31
2019-02-16T01:40:16.662Z,6.33
2019-02-16T01:41:15.197Z,6.43
2019-02-16T01:42:13.756Z,6.37
2019-02-16T01:43:12.541Z,6.41
2019-02-16T01:44:11.265Z,6.36
2019-02-16T01:45:09.968Z,6.43
2019-02-16T01:46:08.577Z,6.28
2019-02-16T01:47:07.232Z,6.25
2019-02-16T01:48:05.981Z,6.33
2019-02-16T01:49:04.626Z,6.37
2019-02-16T01:50:03.168Z,6.28
2019-02-16T01:51:02.015Z,6.3
2019-02-16T01:52:00.748Z,6.31
2019-02-16T01:52:59.380Z,6.22
2019-02-16T01:53:58.028Z,6.11
2019-02-16T01:54:56.682Z,6.08
2019-02-16T01:55:55.244Z,6.08
2019-02-16T01:56:53.887Z,6.04
2019-02-16T01:57:52.651Z,5.99
2019-02-16T01:58:51.220Z,6.04
2019-02-16T01:59:49.762Z,5.9
2019-02-16T02:00:48.305Z,5.94
2019-02-16T02:01:46.913Z,6.04
2019-02-16T02:02:45.488Z,6.03
2019-02-16T02:03:44.038Z,6
2019-02-16T02:04:42.589Z,6.03
2019-02-16T02:05:41.121Z,5.97
2019-02-16T02:06:39.680Z,5.96
2019-02-16T02:07:38.404Z,6
2019-02-16T02:08:37.221Z,5.96
2019-02-16T02:09:35.779Z,5.9
2019-02-16T02:10:34.369Z,5.9
2019-02-16T02:11:33.035Z,5.89
2019-02-16T02:12:31.571Z,5.89
2019-02-16T02:13:30.108Z,5.82
2019-02-16T02:14:28.681Z,5.99
2019-02-16T02:15:27.258Z,6.04
2019-02-16T02:16:25.766Z,5.97
2019-02-16T02:17:24.311Z,5.97
2019-02-16T02:18:22.953Z,5.93
2019-02-16T02:19:21.446Z,5.82
2019-02-16T02:20:19.971Z,5.9
2019-02-16T02:21:18.597Z,5.79
2019-02-16T02:22:17.235Z,5.86
2019-02-16T02:23:15.687Z,5.93
2019-02-16T02:24:14.243Z,6.03
2019-02-16T02:25:13.096Z,6.14
2019-02-16T02:26:11.628Z,6.21
2019-02-16T02:27:10.526Z,6.25
2019-02-16T02:28:09.225Z,6.31
2019-02-16T02:29:07.875Z,6.19
2019-02-16T02:30:06.657Z,6.18
2019-02-16T02:31:05.273Z,6.19
2019-02-16T02:32:03.834Z,6.19
2019-02-16T02:33:02.587Z,6.19
2019-02-16T02:34:01.189Z,6.21
2019-02-16T02:34:59.724Z,6.15
2019-02-16T02:35:58.324Z,6.14
2019-02-16T02:36:57.136Z,6.08
2019-02-16T02:37:55.675Z,6.03
2019-02-16T02:38:54.540Z,5.91
2019-02-16T02:39:53.101Z,5.89
2019-02-16T02:40:51.645Z,5.91
2019-02-16T02:41:50.190Z,5.86
2019-02-16T02:42:48.742Z,5.89
2019-02-16T02:43:47.319Z,5.94
2019-02-16T02:44:45.878Z,5.81
2019-02-16T02:45:44.444Z,5.89
2019-02-16T02:46:43.225Z,5.86
2019-02-16T02:47:41.824Z,5.93
2019-02-16T02:48:40.365Z,6.03
2019-02-16T02:49:38.893Z,6.27
2019-02-16T02:50:37.469Z,6.06
2019-02-16T02:51:35.998Z,6.08
2019-02-16T02:52:34.605Z,6.03
2019-02-16T02:53:33.280Z,5.99
2019-02-16T02:54:31.795Z,5.97
2019-02-16T02:55:30.331Z,5.99
2019-02-16T02:56:28.873Z,5.97
2019-02-16T02:57:27.406Z,5.99
2019-02-16T02:58:25.961Z,5.9
2019-02-16T02:59:24.514Z,5.99
2019-02-16T03:00:23.108Z,5.91
2019-02-16T03:01:21.666Z,5.81
2019-02-16T03:02:20.187Z,5.99
2019-02-16T03:03:18.845Z,5.96
2019-02-16T03:04:17.528Z,6.12
2019-02-16T03:05:16.168Z,6.3
2019-02-16T03:06:14.919Z,6.21
2019-02-16T03:07:13.477Z,6.21
2019-02-16T03:08:12.039Z,6.31
2019-02-16T03:09:10.784Z,6.28
2019-02-16T03:10:09.354Z,6.11
2019-02-16T03:11:07.914Z,6.25
2019-02-16T03:12:06.553Z,6.18
2019-02-16T03:13:05.144Z,6.12
2019-02-16T03:14:03.701Z,6.27
2019-02-16T03:15:02.247Z,6.33
2019-02-16T03:16:00.915Z,6.18
2019-02-16T03:16:59.479Z,6.17
2019-02-16T03:17:58.026Z,6.17
2019-02-16T03:18:56.726Z,6.11
2019-02-16T03:19:55.302Z,6.09
2019-02-16T03:20:53.851Z,6.11
2019-02-16T03:22:00.585Z,6.08
2019-02-16T03:22:51.038Z,6.27
2019-02-16T03:23:49.706Z,6.31
2019-02-16T03:24:48.537Z,6.3
2019-02-16T03:25:47.276Z,6.3
2019-02-16T03:26:45.845Z,6.34
2019-02-16T03:27:44.416Z,6.46
2019-02-16T03:28:42.973Z,6.4
2019-02-16T03:29:41.509Z,6.44
2019-02-16T03:30:40.198Z,6.49
2019-02-16T03:31:38.806Z,6.46
2019-02-16T03:32:37.452Z,6.36
2019-02-16T03:33:36.142Z,6.44
2019-02-16T03:34:34.760Z,6.41
2019-02-16T03:35:33.398Z,6.28
2019-02-16T03:38:13.658Z,6.34
2019-02-16T03:39:12.203Z,6.31
2019-02-16T03:40:10.836Z,6.27
2019-02-16T03:41:09.500Z,6.28
2019-02-16T03:42:08.273Z,6.25
2019-02-16T03:43:06.997Z,6.33
2019-02-16T03:44:05.589Z,6.18
2019-02-16T03:45:04.108Z,6.12
2019-02-16T03:46:02.671Z,6.12
2019-02-16T03:47:01.201Z,6.31
2019-02-16T03:47:59.737Z,6.22
2019-02-16T03:48:58.488Z,6.18
2019-02-16T03:49:57.247Z,6.11
2019-02-16T03:50:55.801Z,6.06
2019-02-16T03:51:55.045Z,6.03
2019-02-16T04:06:40.965Z,5.75
2019-02-16T04:07:39.529Z,5.72
2019-02-16T04:08:38.081Z,5.74
2019-02-16T04:09:36.725Z,5.67
2019-02-16T04:10:35.289Z,5.63
2019-02-16T04:11:33.844Z,5.71
2019-02-16T04:12:32.399Z,5.65
2019-02-16T04:13:31.187Z,5.63
2019-02-16T04:14:29.723Z,5.46
2019-02-16T04:15:28.277Z,5.6
2019-02-16T04:16:27.122Z,5.53
2019-02-16T04:17:25.760Z,5.51
2019-02-16T04:18:24.358Z,5.54
2019-02-16T04:19:22.928Z,5.39
2019-02-16T04:20:21.500Z,5.57
2019-02-16T04:21:20.089Z,5.68
2019-02-16T04:22:24.431Z,5.57
2019-02-16T04:23:17.447Z,5.49
2019-02-16T04:24:16.029Z,5.31
2019-02-16T04:25:14.744Z,5.39
2019-02-16T04:26:13.350Z,5.56
2019-02-16T04:27:11.924Z,5.72
2019-02-16T04:28:10.474Z,5.68
2019-02-16T04:29:09.066Z,5.68
2019-02-16T04:30:07.627Z,5.63
2019-02-16T04:31:06.163Z,5.6
2019-02-16T04:32:04.696Z,5.67
2019-02-16T04:33:03.280Z,5.68
2019-02-16T04:34:01.834Z,5.49
2019-02-16T04:35:00.549Z,5.46
2019-02-16T04:35:59.338Z,5.6
2019-02-16T04:36:57.908Z,5.67
2019-02-16T04:37:56.533Z,5.78
2019-02-16T04:38:55.146Z,5.81
2019-02-16T04:39:53.700Z,5.81
2019-02-16T04:40:52.545Z,5.54
2019-02-16T04:41:51.206Z,5.58
2019-02-16T04:42:49.802Z,5.53
2019-02-16T04:43:48.573Z,5.57
2019-02-16T04:44:47.469Z,5.68
2019-02-16T04:45:46.034Z,5.72
2019-02-16T04:46:44.722Z,5.61
2019-02-16T04:47:43.369Z,5.6
2019-02-16T04:48:41.956Z,5.65
2019-02-16T04:49:40.654Z,5.6
2019-02-16T04:50:39.280Z,5.68
2019-02-16T04:51:37.819Z,5.68
2019-02-16T04:52:36.382Z,5.89
2019-02-16T04:53:34.986Z,5.63
2019-02-16T04:54:33.629Z,5.53
2019-02-16T04:55:32.214Z,5.51
2019-02-16T04:56:30.784Z,5.49
2019-02-16T04:57:29.437Z,5.46
2019-02-16T04:58:28.035Z,5.38
2019-02-16T04:59:26.653Z,5.39
2019-02-16T05:00:25.220Z,5.42
2019-02-16T05:01:23.757Z,5.31
2019-02-16T05:02:22.426Z,5.28
2019-02-16T05:03:21.128Z,5.27
2019-02-16T05:04:19.666Z,5.3
2019-02-16T05:05:18.239Z,5.27
2019-02-16T05:06:16.932Z,5.31
2019-02-16T05:07:15.503Z,5.36
2019-02-16T05:08:14.100Z,5.3
2019-02-16T05:09:12.659Z,5.35
2019-02-16T05:10:11.326Z,5.21
2019-02-16T05:11:09.871Z,5.24
2019-02-16T05:12:08.473Z,5.2
2019-02-16T05:13:07.120Z,5.33
2019-02-16T05:14:05.651Z,5.27
2019-02-16T05:15:04.202Z,5.24
2019-02-16T05:16:02.836Z,5.22
2019-02-16T05:17:01.367Z,5.35
2019-02-16T05:18:00.012Z,5.31
2019-02-16T05:18:58.728Z,5.31
2019-02-16T05:19:57.288Z,5.2
2019-02-16T05:20:55.817Z,5.27
2019-02-16T05:23:11.643Z,5.39
2019-02-16T05:24:10.207Z,5.3
2019-02-16T05:25:08.938Z,5.33
2019-02-16T05:26:07.491Z,5.09
2019-02-16T05:27:06.070Z,5.21
2019-02-16T05:28:04.612Z,5.1
2019-02-16T05:29:03.185Z,5.25
2019-02-16T05:30:01.744Z,5.3
2019-02-16T05:31:00.390Z,5.09
2019-02-16T05:31:59.087Z,5.07
2019-02-16T05:32:57.631Z,5.12
2019-02-16T05:33:56.179Z,5.06
2019-02-16T05:34:54.878Z,5.06
2019-02-16T05:35:53.428Z,5.22
2019-02-16T05:36:51.978Z,5.22
2019-02-16T05:37:50.721Z,5.33
2019-02-16T05:38:49.283Z,5.35
2019-02-16T05:39:47.850Z,5.38
2019-02-16T05:40:46.402Z,5.46
2019-02-16T05:41:45.090Z,5.53
2019-02-16T05:42:43.638Z,5.67
2019-02-16T05:43:42.197Z,5.71
2019-02-16T05:44:41.134Z,5.72
2019-02-16T05:45:39.726Z,5.64
2019-02-16T05:46:38.288Z,5.45
2019-02-16T05:47:36.963Z,5.58
2019-02-16T05:48:35.541Z,5.53
2019-02-16T05:49:34.098Z,5.27
2019-02-16T05:50:32.687Z,5.33
2019-02-16T05:51:31.282Z,5.39
2019-02-16T05:52:29.861Z,5.39
2019-02-16T05:53:28.464Z,5.36
2019-02-16T05:54:27.126Z,5.42
2019-02-16T05:55:25.679Z,5.24
2019-02-16T05:56:24.271Z,5.43
2019-02-16T05:57:22.815Z,5.31
2019-02-16T05:58:21.476Z,5.39
2019-02-16T05:59:20.030Z,5.35
2019-02-16T06:00:18.566Z,5.45
2019-02-16T06:01:17.137Z,5.45
2019-02-16T06:02:15.691Z,5.57
2019-02-16T06:03:14.241Z,5.57
2019-02-16T06:04:12.787Z,5.57
2019-02-16T06:05:11.332Z,5.6
2019-02-16T06:06:09.880Z,5.74
2019-02-16T06:07:08.508Z,5.63
2019-02-16T06:08:07.153Z,5.49
2019-02-16T06:09:05.721Z,5.45
2019-02-16T06:10:04.296Z,5.48
2019-02-16T06:11:03.261Z,5.39
2019-02-16T06:15:05.325Z,5.65
2019-02-16T06:16:03.869Z,5.65
2019-02-16T06:17:02.531Z,5.83
2019-02-16T06:18:01.319Z,5.85
2019-02-16T06:18:59.864Z,5.79
2019-02-16T06:19:58.483Z,5.74
2019-02-16T06:20:57.044Z,5.6
2019-02-16T06:21:55.587Z,5.54
2019-02-16T06:23:03.413Z,5.53
2019-02-16T06:23:52.793Z,5.6
2019-02-16T06:24:51.334Z,5.64
2019-02-16T06:25:49.903Z,5.65
2019-02-16T06:26:48.528Z,5.58
2019-02-16T06:27:47.163Z,5.57
2019-02-16T06:28:45.775Z,5.53
2019-02-16T06:29:44.315Z,5.43
2019-02-16T06:30:43.138Z,5.49
2019-02-16T06:31:41.655Z,5.35
2019-02-16T06:32:40.199Z,5.25
2019-02-16T06:33:38.743Z,5.25
2019-02-16T06:34:37.352Z,5.35
2019-02-16T06:35:35.879Z,5.27
2019-02-16T06:36:34.461Z,5.09
2019-02-16T06:37:33.049Z,5.02
2019-02-16T06:38:31.613Z,4.99
2019-02-16T06:39:30.181Z,5.17
2019-02-16T06:40:28.724Z,5.35
2019-02-16T06:41:27.347Z,5.28
2019-02-16T06:42:25.954Z,5.39
2019-02-16T06:43:24.523Z,5.45
2019-02-16T06:44:23.315Z,5.57
2019-02-16T06:45:21.855Z,5.39
2019-02-16T06:46:20.438Z,5.33
2019-02-16T06:47:19.062Z,5.38
2019-02-16T06:48:17.677Z,5.36
2019-02-16T06:49:16.222Z,5.31
2019-02-16T06:50:14.782Z,5.36
2019-02-16T06:51:14.930Z,5.33
2019-02-16T06:52:12.036Z,5.22
2019-02-16T06:53:13.137Z,5.39
2019-02-16T06:54:09.435Z,5.36
2019-02-16T06:55:08.088Z,5.4
2019-02-16T06:56:06.753Z,5.45
2019-02-16T06:57:05.377Z,5.56
2019-02-16T06:58:03.919Z,5.58
2019-02-16T06:59:02.478Z,5.68
2019-02-16T07:00:01.358Z,5.75
2019-02-16T07:00:59.989Z,5.76
2019-02-16T07:01:58.689Z,5.74
2019-02-16T07:02:57.486Z,5.89
2019-02-16T07:03:56.041Z,5.93
2019-02-16T07:04:54.599Z,5.94
2019-02-16T07:05:53.400Z,5.93
2019-02-16T07:06:52.023Z,5.99
2019-02-16T07:07:50.767Z,6
2019-02-16T07:08:49.437Z,6.06
2019-02-16T07:09:48.013Z,6.03
2019-02-16T07:10:46.555Z,5.89
2019-02-16T07:11:45.098Z,6.04
2019-02-16T07:12:43.655Z,5.81
2019-02-16T07:13:42.216Z,5.91
2019-02-16T07:14:40.883Z,5.72
2019-02-16T07:15:39.565Z,5.75
2019-02-16T07:16:38.131Z,5.72
2019-02-16T07:17:36.922Z,5.76
2019-02-16T07:18:35.471Z,5.6
2019-02-16T07:19:34.022Z,5.76
2019-02-16T07:20:32.688Z,5.53
2019-02-16T07:21:31.276Z,5.53
2019-02-16T07:22:29.799Z,5.6
2019-02-16T07:23:28.345Z,5.46
2019-02-16T07:24:27.091Z,5.39
2019-02-16T07:25:25.784Z,5.61
2019-02-16T07:26:24.308Z,5.67
2019-02-16T07:27:23.082Z,5.65
2019-02-16T07:28:21.620Z,5.74
2019-02-16T07:29:20.370Z,5.74
2019-02-16T07:30:18.942Z,5.61
2019-02-16T07:31:17.484Z,5.67
2019-02-16T07:32:16.026Z,5.67
2019-02-16T07:33:14.839Z,5.68
2019-02-16T07:34:13.465Z,5.78
2019-02-16T07:35:12.300Z,5.68
2019-02-16T07:36:10.971Z,5.65
2019-02-16T07:38:51.296Z,5.78
2019-02-16T07:39:49.848Z,5.81
2019-02-16T07:40:48.445Z,5.85
2019-02-16T07:41:47.205Z,5.76
2019-02-16T07:42:45.861Z,5.91
2019-02-16T07:43:44.533Z,6
2019-02-16T07:44:43.174Z,6.15
2019-02-16T07:45:41.716Z,6.28
2019-02-16T07:46:40.580Z,6.36
2019-02-16T07:47:39.270Z,6.25
2019-02-16T07:48:39.870Z,6.25
2019-02-16T07:49:38.449Z,6.33
2019-02-16T07:50:36.998Z,6.3
2019-02-16T07:51:35.527Z,6.36
2019-02-16T08:06:42.384Z,6.46
2019-02-16T08:07:42.768Z,6.49
2019-02-16T08:08:39.620Z,6.54
2019-02-16T08:09:38.208Z,6.54
2019-02-16T08:10:36.925Z,6.49
2019-02-16T08:11:35.971Z,6.56
2019-02-16T08:12:34.556Z,6.58
2019-02-16T08:13:33.297Z,6.7
2019-02-16T08:14:31.818Z,6.64
2019-02-16T08:15:30.416Z,6.71
2019-02-16T08:16:29.081Z,6.76
2019-02-16T08:17:27.727Z,6.79
2019-02-16T08:18:26.326Z,6.85
2019-02-16T08:19:25.042Z,6.8
2019-02-16T08:20:23.604Z,6.88
2019-02-16T08:21:22.159Z,6.89
2019-02-16T08:22:20.722Z,7.03
2019-02-16T08:23:19.303Z,7.03
2019-02-16T08:24:17.839Z,7.1
2019-02-16T08:25:16.350Z,7.03
2019-02-16T08:26:14.925Z,7.03
2019-02-16T08:27:13.462Z,7.06
2019-02-16T08:28:12.070Z,7.09
2019-02-16T08:29:10.607Z,7.07
2019-02-16T08:31:50.795Z,7.3
2019-02-16T08:32:49.489Z,7.28
2019-02-16T08:33:48.086Z,7.28
2019-02-16T08:34:46.745Z,7.17
2019-02-16T08:35:45.506Z,7.1
2019-02-16T08:36:44.160Z,7.1
2019-02-16T08:37:42.851Z,7.15
2019-02-16T08:38:41.482Z,7.15
2019-02-16T08:42:20.543Z,7.17
2019-02-16T08:43:19.197Z,7.15
2019-02-16T08:44:17.773Z,7.21
2019-02-16T08:45:16.306Z,7.2
2019-02-16T08:46:15.291Z,7.13
2019-02-16T08:47:13.837Z,7.13
2019-02-16T08:48:12.368Z,7.24
2019-02-16T08:49:11.184Z,7.21
2019-02-16T08:50:09.731Z,7.3
2019-02-16T08:51:08.273Z,7.23
2019-02-16T08:52:06.863Z,7.34
2019-02-16T08:53:05.557Z,7.35
2019-02-16T08:54:04.121Z,7.4
2019-02-16T08:55:02.886Z,7.42
2019-02-16T08:56:01.910Z,7.5
2019-02-16T08:57:00.463Z,7.5
2019-02-16T08:57:59.067Z,7.52
2019-02-16T08:58:57.755Z,7.68
2019-02-16T08:59:56.525Z,7.77
2019-02-16T09:00:55.237Z,7.69
2019-02-16T09:01:53.808Z,7.85
2019-02-16T09:02:52.338Z,7.82
2019-02-16T09:03:50.943Z,7.79
2019-02-16T09:04:49.847Z,7.85
2019-02-16T09:05:48.387Z,7.86
2019-02-16T09:06:47.134Z,7.92
2019-02-16T09:07:45.704Z,7.9
2019-02-16T09:08:44.257Z,8.04
2019-02-16T09:11:24.655Z,8
2019-02-16T09:12:23.580Z,8.08
2019-02-16T09:13:22.142Z,8.08
2019-02-16T09:14:20.756Z,8.11
2019-02-16T09:15:19.378Z,8.12
2019-02-16T09:16:17.925Z,8.19
2019-02-16T09:18:40.782Z,8.23
2019-02-16T09:19:39.423Z,8.28
2019-02-16T09:20:37.981Z,8.25
2019-02-16T09:21:36.639Z,8.29
2019-02-16T09:26:40.000Z,8.44
2019-02-16T09:27:38.578Z,8.4
2019-02-16T09:28:37.093Z,8.52
2019-02-16T09:29:35.612Z,8.52
2019-02-16T09:30:34.159Z,8.45
2019-02-16T09:31:32.751Z,8.58
2019-02-16T09:32:31.406Z,8.62
2019-02-16T09:34:58.434Z,8.76
2019-02-16T09:35:57.005Z,8.62
2019-02-16T09:36:55.778Z,8.68
2019-02-16T09:37:54.779Z,8.7
2019-02-16T09:38:53.550Z,8.66
2019-02-16T09:39:52.078Z,8.66
2019-02-16T09:40:50.696Z,8.8
2019-02-16T09:41:49.307Z,8.73
2019-02-16T09:42:47.889Z,8.74
2019-02-16T09:43:46.461Z,8.74
2019-02-16T09:44:45.260Z,8.77
2019-02-16T09:45:43.840Z,8.84
2019-02-16T09:46:42.417Z,8.76
2019-02-16T09:47:40.975Z,8.81
2019-02-16T09:48:39.673Z,8.87
2019-02-16T09:49:38.201Z,8.83
2019-02-16T09:50:36.764Z,8.91
2019-02-16T09:51:35.301Z,9.01
2019-02-16T09:52:33.838Z,9.04
2019-02-16T09:53:32.358Z,8.96
2019-02-16T09:54:30.900Z,9.01
2019-02-16T09:55:29.458Z,8.99
2019-02-16T09:56:28.033Z,9.02
2019-02-16T09:57:26.722Z,9.13
2019-02-16T09:58:25.439Z,9.15
2019-02-16T09:59:24.119Z,9.14
2019-02-16T10:00:22.716Z,9.1
2019-02-16T10:01:21.369Z,9.14
2019-02-16T10:02:19.984Z,9.28
2019-02-16T10:03:18.554Z,9.31
2019-02-16T10:04:17.067Z,9.29
2019-02-16T10:05:17.593Z,9.31
2019-02-16T10:06:14.245Z,9.36
2019-02-16T10:07:12.926Z,9.4
2019-02-16T10:08:11.566Z,9.39
2019-02-16T10:09:10.117Z,9.46
2019-02-16T10:10:08.786Z,9.4
2019-02-16T10:11:07.528Z,9.39
2019-02-16T10:12:06.125Z,9.33
2019-02-16T10:14:21.919Z,9.57
2019-02-16T10:15:20.430Z,9.56
2019-02-16T10:16:19.114Z,9.53
2019-02-16T10:17:17.741Z,9.51
2019-02-16T10:18:16.413Z,9.64
2019-02-16T10:19:15.045Z,9.65
2019-02-16T10:20:13.622Z,9.65
2019-02-16T10:21:12.210Z,9.68
2019-02-16T10:22:10.801Z,9.71
2019-02-16T10:23:09.454Z,9.69
2019-02-16T10:24:15.818Z,9.71
2019-02-16T10:25:06.707Z,9.72
2019-02-16T10:26:05.565Z,9.72
2019-02-16T10:27:04.092Z,9.76
2019-02-16T10:28:02.972Z,9.76
2019-02-16T10:29:01.394Z,9.79
2019-02-16T10:30:00.010Z,9.84
2019-02-16T10:31:00.595Z,9.74
2019-02-16T10:31:57.293Z,9.78
2019-02-16T10:32:55.850Z,9.76
2019-02-16T10:33:55.340Z,9.9
2019-02-16T10:34:53.935Z,9.91
2019-02-16T10:35:52.504Z,9.99
2019-02-16T10:36:51.258Z,9.93
2019-02-16T10:37:49.848Z,9.99
2019-02-16T10:38:48.515Z,9.93
2019-02-16T10:39:47.080Z,9.99
2019-02-16T10:40:45.688Z,10.02
2019-02-16T10:41:44.434Z,10.09
2019-02-16T10:42:43.166Z,10.09
2019-02-16T10:43:42.126Z,10.05
2019-02-16T10:44:40.916Z,10.08
2019-02-16T10:45:39.663Z,10.11
2019-02-16T10:46:38.531Z,10.15
2019-02-16T10:47:37.237Z,10.05
2019-02-16T10:50:17.578Z,10.22
2019-02-16T10:52:18.297Z,10.2
2019-02-16T10:53:16.974Z,10.2
2019-02-16T10:54:15.661Z,10.27
2019-02-16T10:55:14.335Z,10.27
2019-02-16T10:56:15.977Z,10.32
2019-02-16T10:57:14.977Z,10.33
2019-02-16T10:58:13.554Z,10.36
2019-02-16T11:00:30.385Z,10.29
2019-02-16T11:01:29.122Z,10.32
2019-02-16T11:02:27.812Z,10.33
2019-02-16T11:04:21.272Z,10.36
2019-02-16T11:06:22.556Z,10.4
2019-02-16T11:07:21.092Z,10.36
2019-02-16T11:08:19.658Z,10.41
2019-02-16T11:09:18.255Z,10.48
2019-02-16T11:10:16.789Z,10.55
2019-02-16T11:12:57.085Z,10.47
2019-02-16T11:13:55.726Z,10.63
2019-02-16T11:14:54.404Z,10.56
2019-02-16T11:15:53.112Z,10.48
2019-02-16T11:16:53.551Z,10.53
2019-02-16T11:17:55.944Z,10.48
2019-02-16T11:18:54.079Z,10.51
2019-02-16T11:19:52.942Z,10.63
2019-02-16T11:20:51.582Z,10.66
2019-02-16T11:25:28.860Z,10.61
2019-02-16T11:26:27.571Z,10.59
2019-02-16T11:27:26.130Z,10.66
2019-02-16T11:29:53.468Z,10.66
2019-02-16T11:30:52.038Z,10.63
2019-02-16T11:31:50.755Z,10.68
2019-02-16T11:32:49.498Z,10.67
2019-02-16T11:33:48.091Z,10.68
2019-02-16T11:34:46.689Z,10.67
2019-02-16T11:35:45.455Z,10.56
2019-02-16T11:36:44.053Z,10.7
2019-02-16T11:40:23.550Z,10.79
2019-02-16T11:41:22.167Z,10.81
2019-02-16T11:42:29.170Z,10.79
2019-02-16T11:43:27.852Z,10.85
2019-02-16T11:44:26.646Z,10.82
2019-02-16T11:45:25.448Z,10.82
2019-02-16T11:46:24.110Z,10.79
2019-02-16T11:47:23.874Z,10.86
2019-02-16T11:48:22.460Z,10.82
2019-02-16T11:49:21.214Z,10.88
2019-02-16T11:50:19.963Z,10.88
2019-02-16T11:51:18.700Z,10.92
2019-02-16T11:52:17.631Z,10.97
2019-02-16T11:53:16.076Z,10.94
2019-02-16T11:54:14.706Z,10.96
2019-02-16T11:55:13.414Z,10.92
2019-02-16T11:56:11.980Z,10.96
2019-02-16T11:57:10.759Z,11.02
2019-02-16T11:58:09.529Z,10.99
2019-02-16T11:59:08.046Z,10.97
2019-02-16T12:00:06.770Z,10.99
2019-02-16T12:01:05.513Z,11
2019-02-16T12:02:04.171Z,11
2019-02-16T12:03:02.777Z,11.02
2019-02-16T12:10:40.293Z,11.07
2019-02-16T12:11:39.209Z,11.18
2019-02-16T12:12:37.815Z,11.17
2019-02-16T12:13:36.391Z,11.19
2019-02-16T12:14:35.039Z,11.19
2019-02-16T12:15:33.591Z,11.14
2019-02-16T12:16:32.124Z,11.21
2019-02-16T12:19:12.336Z,11.15
2019-02-16T12:20:11.238Z,11.22
2019-02-16T12:21:10.429Z,11.22
2019-02-16T12:22:09.302Z,11.35
2019-02-16T12:23:07.923Z,11.33
2019-02-16T12:24:06.456Z,11.24
2019-02-16T12:25:06.189Z,11.36
2019-02-16T12:26:03.707Z,11.33
2019-02-16T12:27:02.256Z,11.37
2019-02-16T12:28:00.976Z,11.42
2019-02-16T12:28:59.779Z,11.37
2019-02-16T12:29:58.462Z,11.42
2019-02-16T12:30:57.247Z,11.43
2019-02-16T12:31:55.799Z,11.49
2019-02-16T12:32:54.396Z,11.39
2019-02-16T12:33:53.153Z,11.4
2019-02-16T12:34:51.700Z,11.47
2019-02-16T12:35:50.262Z,11.46
2019-02-16T12:36:49.050Z,11.55
2019-02-16T12:37:47.721Z,11.46
2019-02-16T12:38:46.294Z,11.51
2019-02-16T12:39:44.863Z,11.49
2019-02-16T12:40:43.437Z,11.55
2019-02-16T12:41:41.951Z,11.51
2019-02-16T12:45:04.109Z,11.65
2019-02-16T12:46:48.611Z,11.72
2019-02-16T12:47:47.681Z,11.73
2019-02-16T12:48:46.242Z,11.72
2019-02-16T12:49:45.018Z,11.75
2019-02-16T12:50:43.657Z,11.67
2019-02-16T12:51:42.219Z,11.73
2019-02-16T12:52:40.926Z,11.79
2019-02-16T12:53:39.609Z,11.76
2019-02-16T12:54:38.216Z,11.78
2019-02-16T12:55:36.758Z,11.75
2019-02-16T12:56:35.372Z,11.79
2019-02-16T12:57:33.915Z,11.76
2019-02-16T12:58:32.684Z,11.79
2019-02-16T13:01:14.047Z,11.9
2019-02-16T13:02:12.730Z,11.79
2019-02-16T13:03:11.387Z,11.76
2019-02-16T13:04:10.084Z,11.78
2019-02-16T13:05:08.654Z,11.98
2019-02-16T13:06:07.389Z,11.99
2019-02-16T13:07:06.118Z,11.95
2019-02-16T13:08:04.732Z,11.95
2019-02-16T13:09:03.348Z,11.99
2019-02-16T13:10:01.893Z,12.01
2019-02-16T13:11:00.637Z,11.94
2019-02-16T13:11:59.266Z,11.98
2019-02-16T13:12:57.967Z,11.99
2019-02-16T13:15:38.133Z,12.02
2019-02-16T13:16:36.679Z,12.05
2019-02-16T13:17:35.373Z,12.02
2019-02-16T13:18:33.932Z,12.12
2019-02-16T13:19:32.778Z,12.05
2019-02-16T13:21:55.811Z,12.13
2019-02-16T13:22:54.370Z,12.23
2019-02-16T13:24:54.189Z,12.27
2019-02-16T13:25:52.760Z,12.07
2019-02-16T13:26:51.420Z,12.23
2019-02-16T13:27:50.007Z,12.14
2019-02-16T13:30:30.117Z,12.19
2019-02-16T13:34:51.975Z,12.28
2019-02-16T13:35:50.582Z,12.39
2019-02-16T13:38:30.949Z,12.39
2019-02-16T13:39:29.579Z,12.49
2019-02-16T13:40:28.186Z,12.49
2019-02-16T13:41:26.909Z,12.49
2019-02-16T13:42:25.555Z,12.57
2019-02-16T13:43:24.150Z,12.64
2019-02-16T13:44:22.726Z,12.67
2019-02-16T13:45:21.257Z,12.62
2019-02-16T13:46:19.892Z,12.64
2019-02-16T13:47:18.473Z,12.54
2019-02-16T13:48:17.374Z,12.59
2019-02-16T13:49:16.017Z,12.74
2019-02-16T13:51:38.956Z,12.65
2019-02-16T13:54:19.270Z,12.53
2019-02-16T13:55:17.844Z,12.59
2019-02-16T13:56:16.403Z,12.72
2019-02-16T13:57:15.016Z,12.62
2019-02-16T13:58:13.615Z,12.7
2019-02-16T14:00:36.458Z,12.72
2019-02-16T14:01:35.282Z,12.68
2019-02-16T14:02:33.805Z,12.7
2019-02-16T14:03:32.350Z,12.72
2019-02-16T14:04:30.988Z,12.7
2019-02-16T14:05:29.936Z,12.75
2019-02-16T14:07:46.006Z,12.75
2019-02-16T14:08:44.507Z,12.83
2019-02-16T14:09:43.161Z,12.86
2019-02-16T14:12:23.230Z,12.89
2019-02-16T14:13:21.872Z,12.92
2019-02-16T14:14:21.062Z,12.87
2019-02-16T14:15:19.688Z,12.83
2019-02-16T14:16:18.308Z,12.95
2019-02-16T14:17:18.981Z,12.93
2019-02-16T14:18:18.462Z,12.93
2019-02-16T14:19:17.434Z,12.93
2019-02-16T14:20:15.993Z,12.97
2019-02-16T14:21:14.724Z,12.95
2019-02-16T14:23:54.919Z,12.96
2019-02-16T14:24:53.998Z,12.97
2019-02-16T14:25:53.450Z,13.04
2019-02-16T14:28:33.680Z,13
2019-02-16T14:29:32.416Z,13.04
2019-02-16T14:30:31.440Z,13.04
2019-02-16T14:31:30.041Z,13.01
2019-02-16T14:32:28.648Z,12.96
2019-02-16T14:33:27.155Z,13.05
2019-02-16T14:34:25.699Z,12.96
2019-02-16T14:35:24.242Z,13
2019-02-16T14:36:23.102Z,12.97
2019-02-16T14:37:21.686Z,13.11
2019-02-16T14:38:20.265Z,13.08
2019-02-16T14:41:59.042Z,12.95